Terminal Aerodrome Forecast
Issued by NWS Wilmington, OH

Current Version | Previous Version | Graphics & Text | Print | Product List | Glossary On
Versions: 1 2 3 4 5 6 7 8 9 10 11 12 13 14 15 16 17 18 19 20 21 22 23 24 25 26
000
FTUS41 KILN 261100
TAFDAY
TAF
KDAY 261126Z 2612/2712 20012KT P6SM SCT025 BKN120
     FM261600 21014G22KT P6SM BKN035
     FM261800 21016G26KT P6SM VCTS BKN040CB
      TEMPO 2621/2624 3SM TSRA BR OVC020CB
     FM270100 20012KT P6SM VCSH BKN040
     FM270600 20012KT P6SM BKN010=

USA.gov is the U.S. government's official web portal to all federal, state and local government web resources and services.